sensor_id;sensor_type;location;lat;lon;timestamp;P1;durP1;ratioP1;P2;durP2;ratioP2
68872;SDS011;55907;50.806;12.882;2023-10-31T00:02:31;80.9;;;75.6;;
68872;SDS011;55907;50.806;12.882;2023-10-31T00:05:33;84.1;;;78.5;;
68872;SDS011;55907;50.806;12.882;2023-10-31T00:08:34;93.9;;;87.6;;
68872;SDS011;55907;50.806;12.882;2023-10-31T00:11:36;94.8;;;88.4;;
68872;SDS011;55907;50.806;12.882;2023-10-31T00:14:38;104.1;;;97.0;;
68872;SDS011;55907;50.806;12.882;2023-10-31T00:17:39;111.7;;;104.0;;
68872;SDS011;55907;50.806;12.882;2023-10-31T00:20:40;125.4;;;116.7;;
68872;SDS011;55907;50.806;12.882;2023-10-31T00:23:42;137.5;;;128.2;;
68872;SDS011;55907;50.806;12.882;2023-10-31T00:26:44;168.4;;;157.4;;
68872;SDS011;55907;50.806;12.882;2023-10-31T00:29:45;188.9;;;176.9;;
68872;SDS011;55907;50.806;12.882;2023-10-31T00:32:47;204.2;;;191.5;;
68872;SDS011;55907;50.806;12.882;2023-10-31T00:35:48;217.2;;;204.0;;
68872;SDS011;55907;50.806;12.882;2023-10-31T00:38:50;215.1;;;202.2;;
68872;SDS011;55907;50.806;12.882;2023-10-31T00:41:51;215.8;;;202.7;;
68872;SDS011;55907;50.806;12.882;2023-10-31T00:44:53;216.7;;;203.4;;
68872;SDS011;55907;50.806;12.882;2023-10-31T00:47:54;204.6;;;192.1;;
68872;SDS011;55907;50.806;12.882;2023-10-31T00:50:56;200.0;;;187.8;;
68872;SDS011;55907;50.806;12.882;2023-10-31T00:53:57;198.8;;;186.7;;
68872;SDS011;55907;50.806;12.882;2023-10-31T00:56:59;197.0;;;184.8;;
68872;SDS011;55907;50.806;12.882;2023-10-31T01:00:00;200.8;;;188.3;;
68872;SDS011;55907;50.806;12.882;2023-10-31T01:03:02;222.7;;;208.9;;
68872;SDS011;55907;50.806;12.882;2023-10-31T01:06:03;235.9;;;221.2;;
68872;SDS011;55907;50.806;12.882;2023-10-31T01:09:05;262.6;;;246.0;;
68872;SDS011;55907;50.806;12.882;2023-10-31T01:12:06;285.9;;;267.9;;
68872;SDS011;55907;50.806;12.882;2023-10-31T01:15:08;311.0;;;291.4;;
68872;SDS011;55907;50.806;12.882;2023-10-31T01:18:09;333.8;;;312.8;;
68872;SDS011;55907;50.806;12.882;2023-10-31T01:21:11;351.1;;;329.0;;
68872;SDS011;55907;50.806;12.882;2023-10-31T01:24:12;364.4;;;341.4;;
68872;SDS011;55907;50.806;12.882;2023-10-31T01:27:14;377.5;;;353.6;;
68872;SDS011;55907;50.806;12.882;2023-10-31T01:30:15;376.1;;;352.2;;
68872;SDS011;55907;50.806;12.882;2023-10-31T01:33:17;395.8;;;370.6;;
68872;SDS011;55907;50.806;12.882;2023-10-31T01:36:18;396.3;;;371.2;;
68872;SDS011;55907;50.806;12.882;2023-10-31T01:39:20;399.4;;;374.1;;
68872;SDS011;55907;50.806;12.882;2023-10-31T01:42:22;401.0;;;375.4;;
68872;SDS011;55907;50.806;12.882;2023-10-31T01:45:23;400.5;;;375.1;;
68872;SDS011;55907;50.806;12.882;2023-10-31T01:48:25;399.9;;;374.4;;
68872;SDS011;55907;50.806;12.882;2023-10-31T01:51:26;395.4;;;370.3;;
68872;SDS011;55907;50.806;12.882;2023-10-31T01:54:28;385.3;;;360.9;;
68872;SDS011;55907;50.806;12.882;2023-10-31T01:57:29;379.8;;;355.6;;
68872;SDS011;55907;50.806;12.882;2023-10-31T02:00:31;376.2;;;352.3;;
68872;SDS011;55907;50.806;12.882;2023-10-31T02:03:32;372.5;;;348.9;;
68872;SDS011;55907;50.806;12.882;2023-10-31T02:06:34;367.8;;;344.5;;
68872;SDS011;55907;50.806;12.882;2023-10-31T02:09:35;352.4;;;330.2;;
68872;SDS011;55907;50.806;12.882;2023-10-31T02:12:37;350.4;;;328.3;;
68872;SDS011;55907;50.806;12.882;2023-10-31T02:15:38;338.6;;;317.6;;
68872;SDS011;55907;50.806;12.882;2023-10-31T02:18:40;321.1;;;301.4;;
68872;SDS011;55907;50.806;12.882;2023-10-31T02:21:41;288.4;;;270.6;;
68872;SDS011;55907;50.806;12.882;2023-10-31T02:24:43;276.5;;;259.5;;
68872;SDS011;55907;50.806;12.882;2023-10-31T02:27:44;258.6;;;242.6;;
68872;SDS011;55907;50.806;12.882;2023-10-31T02:30:46;236.1;;;221.6;;
68872;SDS011;55907;50.806;12.882;2023-10-31T02:33:47;223.8;;;210.0;;
68872;SDS011;55907;50.806;12.882;2023-10-31T02:36:49;207.0;;;194.3;;
68872;SDS011;55907;50.806;12.882;2023-10-31T02:39:51;201.3;;;188.9;;
68872;SDS011;55907;50.806;12.882;2023-10-31T02:42:52;197.1;;;185.1;;
68872;SDS011;55907;50.806;12.882;2023-10-31T02:45:54;177.4;;;166.6;;
68872;SDS011;55907;50.806;12.882;2023-10-31T02:48:55;163.7;;;153.8;;
68872;SDS011;55907;50.806;12.882;2023-10-31T02:51:57;153.9;;;144.6;;
68872;SDS011;55907;50.806;12.882;2023-10-31T02:54:58;137.5;;;129.1;;
68872;SDS011;55907;50.806;12.882;2023-10-31T02:58:00;131.6;;;123.6;;
68872;SDS011;55907;50.806;12.882;2023-10-31T03:01:01;125.8;;;118.1;;
68872;SDS011;55907;50.806;12.882;2023-10-31T03:04:03;115.1;;;108.1;;
68872;SDS011;55907;50.806;12.882;2023-10-31T03:07:04;106.9;;;100.4;;
68872;SDS011;55907;50.806;12.882;2023-10-31T03:10:06;96.8;;;90.9;;
68872;SDS011;55907;50.806;12.882;2023-10-31T03:13:07;92.1;;;86.5;;
68872;SDS011;55907;50.806;12.882;2023-10-31T03:16:09;82.2;;;77.1;;
68872;SDS011;55907;50.806;12.882;2023-10-31T03:19:10;81.6;;;76.6;;
68872;SDS011;55907;50.806;12.882;2023-10-31T03:22:12;80.2;;;75.3;;
68872;SDS011;55907;50.806;12.882;2023-10-31T03:25:13;71.8;;;67.4;;
68872;SDS011;55907;50.806;12.882;2023-10-31T03:28:18;63.9;;;59.9;;
68872;SDS011;55907;50.806;12.882;2023-10-31T03:31:17;62.7;;;58.8;;
68872;SDS011;55907;50.806;12.882;2023-10-31T03:34:18;57.7;;;54.1;;
68872;SDS011;55907;50.806;12.882;2023-10-31T03:37:20;51.9;;;48.6;;
68872;SDS011;55907;50.806;12.882;2023-10-31T03:40:21;45.4;;;42.5;;
68872;SDS011;55907;50.806;12.882;2023-10-31T03:43:23;46.3;;;43.3;;
68872;SDS011;55907;50.806;12.882;2023-10-31T03:46:24;48.9;;;45.8;;
68872;SDS011;55907;50.806;12.882;2023-10-31T03:49:26;53.2;;;49.8;;
68872;SDS011;55907;50.806;12.882;2023-10-31T03:52:27;49.2;;;46.1;;
68872;SDS011;55907;50.806;12.882;2023-10-31T03:55:29;47.3;;;44.3;;
68872;SDS011;55907;50.806;12.882;2023-10-31T03:58:30;42.0;;;39.3;;
68872;SDS011;55907;50.806;12.882;2023-10-31T04:01:32;37.8;;;35.3;;
68872;SDS011;55907;50.806;12.882;2023-10-31T04:04:33;32.0;;;29.8;;
68872;SDS011;55907;50.806;12.882;2023-10-31T04:07:35;27.2;;;25.4;;
68872;SDS011;55907;50.806;12.882;2023-10-31T04:10:36;24.1;;;22.4;;
68872;SDS011;55907;50.806;12.882;2023-10-31T04:13:38;20.9;;;19.4;;
68872;SDS011;55907;50.806;12.882;2023-10-31T04:16:40;22.4;;;20.8;;
68872;SDS011;55907;50.806;12.882;2023-10-31T04:19:41;21.1;;;19.6;;
68872;SDS011;55907;50.806;12.882;2023-10-31T04:22:43;20.5;;;19.1;;
68872;SDS011;55907;50.806;12.882;2023-10-31T04:25:44;19.3;;;17.9;;
68872;SDS011;55907;50.806;12.882;2023-10-31T04:28:46;18.8;;;17.5;;
68872;SDS011;55907;50.806;12.882;2023-10-31T04:31:47;20.6;;;19.2;;
68872;SDS011;55907;50.806;12.882;2023-10-31T04:34:49;20.3;;;18.9;;
68872;SDS011;55907;50.806;12.882;2023-10-31T04:37:50;21.4;;;19.9;;
68872;SDS011;55907;50.806;12.882;2023-10-31T04:40:52;20.8;;;19.3;;
68872;SDS011;55907;50.806;12.882;2023-10-31T04:43:53;23.2;;;21.6;;
68872;SDS011;55907;50.806;12.882;2023-10-31T04:46:55;22.8;;;21.2;;
68872;SDS011;55907;50.806;12.882;2023-10-31T04:49:56;23.9;;;22.3;;
68872;SDS011;55907;50.806;12.882;2023-10-31T04:52:58;24.6;;;22.9;;
68872;SDS011;55907;50.806;12.882;2023-10-31T04:55:59;26.5;;;24.7;;
68872;SDS011;55907;50.806;12.882;2023-10-31T04:59:01;28.9;;;27.0;;
68872;SDS011;55907;50.806;12.882;2023-10-31T05:02:03;30.6;;;28.6;;
68872;SDS011;55907;50.806;12.882;2023-10-31T05:05:04;31.3;;;29.2;;
68872;SDS011;55907;50.806;12.882;2023-10-31T05:08:06;32.6;;;30.4;;
68872;SDS011;55907;50.806;12.882;2023-10-31T05:11:07;36.9;;;34.5;;
68872;SDS011;55907;50.806;12.882;2023-10-31T05:14:09;42.3;;;39.6;;
68872;SDS011;55907;50.806;12.882;2023-10-31T05:17:10;43.4;;;40.6;;
68872;SDS011;55907;50.806;12.882;2023-10-31T05:20:12;46.6;;;43.6;;
68872;SDS011;55907;50.806;12.882;2023-10-31T05:23:13;46.8;;;43.8;;
68872;SDS011;55907;50.806;12.882;2023-10-31T05:26:15;48.7;;;45.6;;
68872;SDS011;55907;50.806;12.882;2023-10-31T05:29:16;45.5;;;42.6;;
68872;SDS011;55907;50.806;12.882;2023-10-31T05:32:18;47.0;;;44.0;;
68872;SDS011;55907;50.806;12.882;2023-10-31T05:35:20;50.8;;;47.6;;
68872;SDS011;55907;50.806;12.882;2023-10-31T05:38:21;51.5;;;48.3;;
68872;SDS011;55907;50.806;12.882;2023-10-31T05:41:22;50.6;;;47.4;;
68872;SDS011;55907;50.806;12.882;2023-10-31T05:44:24;54.6;;;51.2;;
68872;SDS011;55907;50.806;12.882;2023-10-31T05:47:25;53.1;;;49.8;;
68872;SDS011;55907;50.806;12.882;2023-10-31T05:50:27;57.1;;;53.6;;
68872;SDS011;55907;50.806;12.882;2023-10-31T05:53:28;57.6;;;54.0;;
68872;SDS011;55907;50.806;12.882;2023-10-31T05:56:30;59.4;;;55.7;;
68872;SDS011;55907;50.806;12.882;2023-10-31T05:59:31;61.8;;;58.0;;
68872;SDS011;55907;50.806;12.882;2023-10-31T06:02:33;60.3;;;56.6;;
68872;SDS011;55907;50.806;12.882;2023-10-31T06:05:34;59.5;;;55.8;;
68872;SDS011;55907;50.806;12.882;2023-10-31T06:08:36;61.0;;;57.2;;
68872;SDS011;55907;50.806;12.882;2023-10-31T06:11:39;62.2;;;58.4;;
68872;SDS011;55907;50.806;12.882;2023-10-31T06:14:39;65.7;;;61.7;;
68872;SDS011;55907;50.806;12.882;2023-10-31T06:17:41;67.0;;;62.9;;
68872;SDS011;55907;50.806;12.882;2023-10-31T06:20:42;68.3;;;64.1;;
68872;SDS011;55907;50.806;12.882;2023-10-31T06:23:44;67.5;;;63.4;;
68872;SDS011;55907;50.806;12.882;2023-10-31T06:26:45;65.4;;;61.4;;
68872;SDS011;55907;50.806;12.882;2023-10-31T06:29:47;67.9;;;63.7;;
68872;SDS011;55907;50.806;12.882;2023-10-31T06:32:48;62.6;;;58.7;;
68872;SDS011;55907;50.806;12.882;2023-10-31T06:35:50;60.5;;;56.8;;
68872;SDS011;55907;50.806;12.882;2023-10-31T06:38:51;60.0;;;56.3;;
68872;SDS011;55907;50.806;12.882;2023-10-31T06:41:54;60.3;;;56.6;;
68872;SDS011;55907;50.806;12.882;2023-10-31T06:44:54;65.9;;;61.9;;
68872;SDS011;55907;50.806;12.882;2023-10-31T06:47:56;67.7;;;63.6;;
68872;SDS011;55907;50.806;12.882;2023-10-31T06:50:57;66.2;;;62.1;;
68872;SDS011;55907;50.806;12.882;2023-10-31T06:53:59;71.6;;;67.2;;
68872;SDS011;55907;50.806;12.882;2023-10-31T06:57:00;75.6;;;71.0;;
68872;SDS011;55907;50.806;12.882;2023-10-31T07:00:02;78.0;;;73.3;;
68872;SDS011;55907;50.806;12.882;2023-10-31T07:03:03;76.1;;;71.5;;
68872;SDS011;55907;50.806;12.882;2023-10-31T07:06:05;80.7;;;75.8;;
68872;SDS011;55907;50.806;12.882;2023-10-31T07:09:06;82.5;;;77.5;;
68872;SDS011;55907;50.806;12.882;2023-10-31T07:12:08;92.5;;;86.9;;
68872;SDS011;55907;50.806;12.882;2023-10-31T07:15:09;92.1;;;86.5;;
68872;SDS011;55907;50.806;12.882;2023-10-31T07:18:11;83.0;;;78.0;;
68872;SDS011;55907;50.806;12.882;2023-10-31T07:21:12;84.9;;;79.8;;
68872;SDS011;55907;50.806;12.882;2023-10-31T07:24:14;79.0;;;74.2;;
68872;SDS011;55907;50.806;12.882;2023-10-31T07:27:15;84.9;;;79.8;;
68872;SDS011;55907;50.806;12.882;2023-10-31T07:30:17;80.0;;;75.1;;
68872;SDS011;55907;50.806;12.882;2023-10-31T07:33:18;84.5;;;79.4;;
68872;SDS011;55907;50.806;12.882;2023-10-31T07:36:20;88.9;;;83.5;;
68872;SDS011;55907;50.806;12.882;2023-10-31T07:39:21;95.7;;;89.9;;
68872;SDS011;55907;50.806;12.882;2023-10-31T07:42:23;94.5;;;88.8;;
68872;SDS011;55907;50.806;12.882;2023-10-31T07:45:24;99.0;;;93.0;;
68872;SDS011;55907;50.806;12.882;2023-10-31T07:48:26;103.9;;;97.6;;
68872;SDS011;55907;50.806;12.882;2023-10-31T07:51:27;99.4;;;93.3;;
68872;SDS011;55907;50.806;12.882;2023-10-31T07:54:29;105.0;;;98.6;;
68872;SDS011;55907;50.806;12.882;2023-10-31T07:57:31;102.3;;;96.0;;
68872;SDS011;55907;50.806;12.882;2023-10-31T08:00:32;100.8;;;94.6;;
68872;SDS011;55907;50.806;12.882;2023-10-31T08:03:34;97.4;;;91.4;;
68872;SDS011;55907;50.806;12.882;2023-10-31T08:06:35;81.8;;;76.8;;
68872;SDS011;55907;50.806;12.882;2023-10-31T08:09:37;65.0;;;61.0;;
68872;SDS011;55907;50.806;12.882;2023-10-31T08:12:38;51.8;;;48.6;;
68872;SDS011;55907;50.806;12.882;2023-10-31T08:15:40;41.9;;;39.2;;
68872;SDS011;55907;50.806;12.882;2023-10-31T08:18:41;33.8;;;31.6;;
68872;SDS011;55907;50.806;12.882;2023-10-31T08:21:43;27.2;;;25.4;;
68872;SDS011;55907;50.806;12.882;2023-10-31T08:24:44;24.2;;;22.6;;
68872;SDS011;55907;50.806;12.882;2023-10-31T08:27:46;22.9;;;21.3;;
68872;SDS011;55907;50.806;12.882;2023-10-31T08:30:47;21.7;;;20.2;;
68872;SDS011;55907;50.806;12.882;2023-10-31T08:33:49;23.2;;;21.6;;
68872;SDS011;55907;50.806;12.882;2023-10-31T08:36:50;25.3;;;23.6;;
68872;SDS011;55907;50.806;12.882;2023-10-31T08:39:52;24.7;;;23.0;;
68872;SDS011;55907;50.806;12.882;2023-10-31T08:42:53;26.8;;;25.0;;
68872;SDS011;55907;50.806;12.882;2023-10-31T08:45:55;23.8;;;22.2;;
68872;SDS011;55907;50.806;12.882;2023-10-31T08:48:56;23.9;;;22.3;;
68872;SDS011;55907;50.806;12.882;2023-10-31T08:51:58;27.2;;;25.4;;
68872;SDS011;55907;50.806;12.882;2023-10-31T08:55:00;59.8;;;56.1;;
68872;SDS011;55907;50.806;12.882;2023-10-31T08:58:01;63.4;;;59.5;;
68872;SDS011;55907;50.806;12.882;2023-10-31T09:01:03;65.7;;;61.6;;
68872;SDS011;55907;50.806;12.882;2023-10-31T09:04:04;52.9;;;49.6;;
68872;SDS011;55907;50.806;12.882;2023-10-31T09:07:06;55.9;;;52.3;;
68872;SDS011;55907;50.806;12.882;2023-10-31T09:10:07;72.7;;;68.2;;
68872;SDS011;55907;50.806;12.882;2023-10-31T09:13:09;83.9;;;78.8;;
68872;SDS011;55907;50.806;12.882;2023-10-31T09:16:10;127.2;;;119.3;;
68872;SDS011;55907;50.806;12.882;2023-10-31T09:19:12;110.0;;;102.7;;
68872;SDS011;55907;50.806;12.882;2023-10-31T09:22:13;133.0;;;123.6;;
68872;SDS011;55907;50.806;12.882;2023-10-31T09:25:15;208.4;;;194.9;;
68872;SDS011;55907;50.806;12.882;2023-10-31T09:28:16;187.7;;;175.5;;
68872;SDS011;55907;50.806;12.882;2023-10-31T09:31:18;156.1;;;145.9;;
68872;SDS011;55907;50.806;12.882;2023-10-31T09:34:19;85.8;;;80.2;;
68872;SDS011;55907;50.806;12.882;2023-10-31T09:37:21;249.1;;;234.6;;
68872;SDS011;55907;50.806;12.882;2023-10-31T09:40:22;106.0;;;98.7;;
68872;SDS011;55907;50.806;12.882;2023-10-31T09:43:23;138.7;;;130.2;;
68872;SDS011;55907;50.806;12.882;2023-10-31T09:46:25;225.5;;;211.2;;
68872;SDS011;55907;50.806;12.882;2023-10-31T09:49:26;202.1;;;188.7;;
68872;SDS011;55907;50.806;12.882;2023-10-31T09:52:28;133.7;;;125.7;;
68872;SDS011;55907;50.806;12.882;2023-10-31T09:55:29;358.8;;;333.1;;
68872;SDS011;55907;50.806;12.882;2023-10-31T09:58:31;417.5;;;385.7;;
68872;SDS011;55907;50.806;12.882;2023-10-31T10:01:32;353.9;;;332.0;;
68872;SDS011;55907;50.806;12.882;2023-10-31T10:04:33;193.7;;;182.0;;
68872;SDS011;55907;50.806;12.882;2023-10-31T10:07:35;133.0;;;124.6;;
68872;SDS011;55907;50.806;12.882;2023-10-31T10:10:36;139.8;;;130.4;;
68872;SDS011;55907;50.806;12.882;2023-10-31T10:13:38;153.1;;;142.6;;
68872;SDS011;55907;50.806;12.882;2023-10-31T10:16:39;137.8;;;128.5;;
68872;SDS011;55907;50.806;12.882;2023-10-31T10:19:41;101.1;;;94.8;;
68872;SDS011;55907;50.806;12.882;2023-10-31T10:22:42;85.9;;;80.6;;
68872;SDS011;55907;50.806;12.882;2023-10-31T10:25:44;98.6;;;92.7;;
68872;SDS011;55907;50.806;12.882;2023-10-31T10:28:46;114.7;;;107.9;;
68872;SDS011;55907;50.806;12.882;2023-10-31T10:31:47;85.6;;;80.5;;
68872;SDS011;55907;50.806;12.882;2023-10-31T10:34:48;70.3;;;66.0;;
68872;SDS011;55907;50.806;12.882;2023-10-31T10:37:49;48.2;;;45.2;;
68872;SDS011;55907;50.806;12.882;2023-10-31T10:40:51;37.9;;;35.5;;
68872;SDS011;55907;50.806;12.882;2023-10-31T10:43:53;59.1;;;55.4;;
68872;SDS011;55907;50.806;12.882;2023-10-31T10:46:54;96.3;;;90.4;;
68872;SDS011;55907;50.806;12.882;2023-10-31T10:49:56;146.4;;;137.4;;
68872;SDS011;55907;50.806;12.882;2023-10-31T10:52:59;171.7;;;161.2;;
68872;SDS011;55907;50.806;12.882;2023-10-31T10:55:59;189.7;;;178.2;;
68872;SDS011;55907;50.806;12.882;2023-10-31T10:59:01;172.7;;;162.1;;
68872;SDS011;55907;50.806;12.882;2023-10-31T11:02:02;168.9;;;158.6;;
68872;SDS011;55907;50.806;12.882;2023-10-31T11:05:04;122.9;;;115.2;;
68872;SDS011;55907;50.806;12.882;2023-10-31T11:08:05;96.3;;;90.3;;
68872;SDS011;55907;50.806;12.882;2023-10-31T11:11:06;57.1;;;53.5;;
68872;SDS011;55907;50.806;12.882;2023-10-31T11:14:08;51.4;;;48.1;;
68872;SDS011;55907;50.806;12.882;2023-10-31T11:17:11;54.4;;;50.9;;
68872;SDS011;55907;50.806;12.882;2023-10-31T11:20:11;67.4;;;63.2;;
68872;SDS011;55907;50.806;12.882;2023-10-31T11:23:12;86.4;;;81.0;;
68872;SDS011;55907;50.806;12.882;2023-10-31T11:26:13;116.4;;;109.1;;
68872;SDS011;55907;50.806;12.882;2023-10-31T11:29:15;147.3;;;138.2;;
68872;SDS011;55907;50.806;12.882;2023-10-31T11:32:16;188.3;;;176.8;;
68872;SDS011;55907;50.806;12.882;2023-10-31T11:35:18;229.1;;;215.3;;
68872;SDS011;55907;50.806;12.882;2023-10-31T11:38:27;250.9;;;235.7;;
68872;SDS011;55907;50.806;12.882;2023-10-31T11:41:21;257.2;;;241.3;;
68872;SDS011;55907;50.806;12.882;2023-10-31T11:44:23;252.5;;;236.7;;
68872;SDS011;55907;50.806;12.882;2023-10-31T11:47:24;246.6;;;231.1;;
68872;SDS011;55907;50.806;12.882;2023-10-31T11:50:26;231.5;;;217.3;;
68872;SDS011;55907;50.806;12.882;2023-10-31T11:53:27;241.9;;;227.0;;
68872;SDS011;55907;50.806;12.882;2023-10-31T11:56:29;252.3;;;236.9;;
68872;SDS011;55907;50.806;12.882;2023-10-31T11:59:35;261.4;;;245.6;;
68872;SDS011;55907;50.806;12.882;2023-10-31T12:02:32;272.8;;;256.2;;
68872;SDS011;55907;50.806;12.882;2023-10-31T12:05:33;268.6;;;252.3;;
68872;SDS011;55907;50.806;12.882;2023-10-31T12:08:36;258.3;;;242.5;;
68872;SDS011;55907;50.806;12.882;2023-10-31T12:11:43;258.7;;;243.0;;
68872;SDS011;55907;50.806;12.882;2023-10-31T12:14:38;245.5;;;230.4;;
68872;SDS011;55907;50.806;12.882;2023-10-31T12:17:39;241.1;;;226.1;;
68872;SDS011;55907;50.806;12.882;2023-10-31T12:20:46;241.2;;;226.2;;
68872;SDS011;55907;50.806;12.882;2023-10-31T12:23:42;235.1;;;220.2;;
68872;SDS011;55907;50.806;12.882;2023-10-31T12:26:44;229.1;;;214.6;;
68872;SDS011;55907;50.806;12.882;2023-10-31T12:29:45;219.2;;;205.3;;
68872;SDS011;55907;50.806;12.882;2023-10-31T12:32:52;225.5;;;211.3;;
68872;SDS011;55907;50.806;12.882;2023-10-31T12:35:48;237.8;;;222.6;;
68872;SDS011;55907;50.806;12.882;2023-10-31T12:38:50;233.0;;;218.4;;
68872;SDS011;55907;50.806;12.882;2023-10-31T12:41:51;238.8;;;223.8;;
68872;SDS011;55907;50.806;12.882;2023-10-31T12:44:53;236.7;;;221.8;;
68872;SDS011;55907;50.806;12.882;2023-10-31T12:48:02;233.9;;;218.9;;
68872;SDS011;55907;50.806;12.882;2023-10-31T12:53:57;243.3;;;227.7;;
68872;SDS011;55907;50.806;12.882;2023-10-31T12:56:59;237.1;;;222.0;;
68872;SDS011;55907;50.806;12.882;2023-10-31T13:00:00;230.3;;;215.2;;
68872;SDS011;55907;50.806;12.882;2023-10-31T13:03:02;232.1;;;217.0;;
68872;SDS011;55907;50.806;12.882;2023-10-31T13:06:13;246.6;;;230.5;;
68872;SDS011;55907;50.806;12.882;2023-10-31T13:09:05;255.7;;;239.3;;
68872;SDS011;55907;50.806;12.882;2023-10-31T13:12:07;263.0;;;246.1;;
68872;SDS011;55907;50.806;12.882;2023-10-31T13:15:08;280.1;;;262.5;;
68872;SDS011;55907;50.806;12.882;2023-10-31T13:18:10;284.9;;;267.2;;
68872;SDS011;55907;50.806;12.882;2023-10-31T13:21:11;310.7;;;291.8;;
68872;SDS011;55907;50.806;12.882;2023-10-31T13:24:13;331.8;;;311.6;;
68872;SDS011;55907;50.806;12.882;2023-10-31T13:27:14;334.8;;;314.4;;
68872;SDS011;55907;50.806;12.882;2023-10-31T13:30:16;321.2;;;301.3;;
68872;SDS011;55907;50.806;12.882;2023-10-31T13:33:17;288.8;;;270.4;;
68872;SDS011;55907;50.806;12.882;2023-10-31T13:36:19;245.9;;;229.7;;
68872;SDS011;55907;50.806;12.882;2023-10-31T13:39:20;203.1;;;189.4;;
68872;SDS011;55907;50.806;12.882;2023-10-31T13:42:22;162.2;;;150.8;;
68872;SDS011;55907;50.806;12.882;2023-10-31T13:45:23;135.7;;;125.9;;
68872;SDS011;55907;50.806;12.882;2023-10-31T13:48:25;134.8;;;125.2;;
68872;SDS011;55907;50.806;12.882;2023-10-31T13:51:26;128.1;;;119.1;;
68872;SDS011;55907;50.806;12.882;2023-10-31T13:54:28;145.9;;;135.8;;
68872;SDS011;55907;50.806;12.882;2023-10-31T13:57:29;164.8;;;153.6;;
68872;SDS011;55907;50.806;12.882;2023-10-31T14:00:31;188.3;;;175.7;;
68872;SDS011;55907;50.806;12.882;2023-10-31T14:03:33;203.6;;;190.3;;
68872;SDS011;55907;50.806;12.882;2023-10-31T14:06:34;208.2;;;194.6;;
68872;SDS011;55907;50.806;12.882;2023-10-31T14:09:36;216.9;;;202.8;;
68872;SDS011;55907;50.806;12.882;2023-10-31T14:12:37;224.0;;;209.5;;
68872;SDS011;55907;50.806;12.882;2023-10-31T14:15:39;221.6;;;207.1;;
68872;SDS011;55907;50.806;12.882;2023-10-31T14:18:40;221.3;;;206.8;;
68872;SDS011;55907;50.806;12.882;2023-10-31T14:21:42;216.2;;;202.1;;
68872;SDS011;55907;50.806;12.882;2023-10-31T14:24:43;220.1;;;205.8;;
68872;SDS011;55907;50.806;12.882;2023-10-31T14:27:45;214.8;;;200.9;;
68872;SDS011;55907;50.806;12.882;2023-10-31T14:30:46;220.6;;;206.3;;
68872;SDS011;55907;50.806;12.882;2023-10-31T14:33:48;217.8;;;203.7;;
68872;SDS011;55907;50.806;12.882;2023-10-31T14:36:49;216.2;;;202.2;;
68872;SDS011;55907;50.806;12.882;2023-10-31T14:39:51;208.8;;;195.3;;
68872;SDS011;55907;50.806;12.882;2023-10-31T14:42:52;196.0;;;183.1;;
68872;SDS011;55907;50.806;12.882;2023-10-31T14:45:54;193.3;;;180.6;;
68872;SDS011;55907;50.806;12.882;2023-10-31T14:48:55;200.3;;;186.9;;
68872;SDS011;55907;50.806;12.882;2023-10-31T14:51:57;170.8;;;159.5;;
68872;SDS011;55907;50.806;12.882;2023-10-31T14:54:58;170.4;;;159.1;;
68872;SDS011;55907;50.806;12.882;2023-10-31T14:58:00;158.9;;;148.4;;
68872;SDS011;55907;50.806;12.882;2023-10-31T15:01:01;141.3;;;131.8;;
68872;SDS011;55907;50.806;12.882;2023-10-31T15:04:03;136.0;;;126.8;;
68872;SDS011;55907;50.806;12.882;2023-10-31T15:07:04;125.3;;;116.8;;
68872;SDS011;55907;50.806;12.882;2023-10-31T15:10:06;115.0;;;107.1;;
68872;SDS011;55907;50.806;12.882;2023-10-31T15:13:07;100.1;;;93.2;;
68872;SDS011;55907;50.806;12.882;2023-10-31T15:16:09;97.0;;;90.3;;
68872;SDS011;55907;50.806;12.882;2023-10-31T15:19:10;87.8;;;81.8;;
68872;SDS011;55907;50.806;12.882;2023-10-31T15:22:12;80.6;;;75.1;;
68872;SDS011;55907;50.806;12.882;2023-10-31T15:25:14;70.9;;;66.1;;
68872;SDS011;55907;50.806;12.882;2023-10-31T15:28:15;62.9;;;58.7;;
68872;SDS011;55907;50.806;12.882;2023-10-31T15:31:17;53.7;;;50.2;;
68872;SDS011;55907;50.806;12.882;2023-10-31T15:34:18;47.3;;;44.2;;
68872;SDS011;55907;50.806;12.882;2023-10-31T15:37:20;38.4;;;35.9;;
68872;SDS011;55907;50.806;12.882;2023-10-31T15:40:21;36.1;;;33.7;;
68872;SDS011;55907;50.806;12.882;2023-10-31T15:43:23;30.5;;;28.5;;
68872;SDS011;55907;50.806;12.882;2023-10-31T15:46:24;29.5;;;27.6;;
68872;SDS011;55907;50.806;12.882;2023-10-31T15:49:26;27.4;;;25.6;;
68872;SDS011;55907;50.806;12.882;2023-10-31T15:52:27;24.3;;;22.7;;
68872;SDS011;55907;50.806;12.882;2023-10-31T15:55:29;21.7;;;20.2;;
68872;SDS011;55907;50.806;12.882;2023-10-31T15:58:31;22.7;;;21.1;;
68872;SDS011;55907;50.806;12.882;2023-10-31T16:01:32;22.1;;;20.6;;
68872;SDS011;55907;50.806;12.882;2023-10-31T16:04:34;20.1;;;18.7;;
68872;SDS011;55907;50.806;12.882;2023-10-31T16:07:35;18.2;;;16.9;;
68872;SDS011;55907;50.806;12.882;2023-10-31T16:10:37;18.5;;;17.2;;
68872;SDS011;55907;50.806;12.882;2023-10-31T16:13:38;18.3;;;17.0;;
68872;SDS011;55907;50.806;12.882;2023-10-31T16:16:40;17.7;;;16.4;;
68872;SDS011;55907;50.806;12.882;2023-10-31T16:19:41;18.9;;;17.6;;
68872;SDS011;55907;50.806;12.882;2023-10-31T16:22:43;19.2;;;17.9;;
68872;SDS011;55907;50.806;12.882;2023-10-31T16:25:44;20.7;;;19.3;;
68872;SDS011;55907;50.806;12.882;2023-10-31T16:28:46;21.3;;;19.8;;
68872;SDS011;55907;50.806;12.882;2023-10-31T16:31:47;23.3;;;21.7;;
68872;SDS011;55907;50.806;12.882;2023-10-31T16:34:49;24.2;;;22.6;;
68872;SDS011;55907;50.806;12.882;2023-10-31T16:37:51;26.4;;;24.6;;
68872;SDS011;55907;50.806;12.882;2023-10-31T16:40:52;27.5;;;25.7;;
68872;SDS011;55907;50.806;12.882;2023-10-31T16:43:54;31.0;;;29.0;;
68872;SDS011;55907;50.806;12.882;2023-10-31T16:46:55;35.1;;;32.8;;
68872;SDS011;55907;50.806;12.882;2023-10-31T16:49:57;39.2;;;36.7;;
68872;SDS011;55907;50.806;12.882;2023-10-31T16:52:58;44.2;;;41.4;;
68872;SDS011;55907;50.806;12.882;2023-10-31T16:56:00;45.6;;;42.7;;
68872;SDS011;55907;50.806;12.882;2023-10-31T16:59:01;49.5;;;46.4;;
68872;SDS011;55907;50.806;12.882;2023-10-31T17:02:03;50.9;;;47.7;;
68872;SDS011;55907;50.806;12.882;2023-10-31T17:05:05;49.9;;;46.8;;
68872;SDS011;55907;50.806;12.882;2023-10-31T17:08:06;50.4;;;47.2;;
68872;SDS011;55907;50.806;12.882;2023-10-31T17:11:08;51.4;;;48.2;;
68872;SDS011;55907;50.806;12.882;2023-10-31T17:14:09;52.1;;;48.8;;
68872;SDS011;55907;50.806;12.882;2023-10-31T17:17:11;52.3;;;49.0;;
68872;SDS011;55907;50.806;12.882;2023-10-31T17:20:12;52.5;;;49.2;;
68872;SDS011;55907;50.806;12.882;2023-10-31T17:23:14;55.2;;;51.7;;
68872;SDS011;55907;50.806;12.882;2023-10-31T17:29:17;56.2;;;52.7;;
68872;SDS011;55907;50.806;12.882;2023-10-31T17:32:18;57.8;;;54.2;;
68872;SDS011;55907;50.806;12.882;2023-10-31T17:35:20;58.8;;;55.1;;
68872;SDS011;55907;50.806;12.882;2023-10-31T17:38:21;56.4;;;52.9;;
68872;SDS011;55907;50.806;12.882;2023-10-31T17:41:23;61.7;;;57.9;;
68872;SDS011;55907;50.806;12.882;2023-10-31T17:44:24;59.4;;;55.7;;
68872;SDS011;55907;50.806;12.882;2023-10-31T17:47:26;62.4;;;58.5;;
68872;SDS011;55907;50.806;12.882;2023-10-31T17:50:27;63.8;;;59.8;;